createdAt,value
2023-10-09T00:00:58.503Z,1.75
2023-10-09T00:02:00.086Z,1.45
2023-10-09T00:03:01.733Z,1.75
2023-10-09T00:04:03.448Z,2.15
2023-10-09T00:05:04.961Z,1.90
2023-10-09T00:06:06.638Z,1.90
2023-10-09T00:07:10.552Z,1.58
2023-10-09T00:08:12.189Z,1.80
2023-10-09T00:09:13.687Z,1.73
2023-10-09T00:10:15.249Z,1.70
2023-10-09T00:11:17.068Z,1.90
2023-10-09T00:12:18.741Z,2.10
2023-10-09T00:13:20.325Z,1.92
2023-10-09T00:14:22.065Z,1.88
2023-10-09T00:15:23.625Z,2.00
2023-10-09T00:16:25.187Z,1.73
2023-10-09T00:17:26.641Z,2.08
2023-10-09T00:18:29.243Z,2.10
2023-10-09T00:19:30.792Z,1.85
2023-10-09T00:20:32.268Z,2.10
2023-10-09T00:21:34.098Z,1.80
2023-10-09T00:22:35.603Z,1.80
2023-10-09T00:23:37.079Z,2.10
2023-10-09T00:24:38.589Z,1.83
2023-10-09T00:25:40.215Z,2.47
2023-10-09T00:26:41.826Z,1.92
2023-10-09T00:27:43.307Z,1.77
2023-10-09T00:28:44.890Z,1.85
2023-10-09T00:29:46.455Z,1.70
2023-10-09T00:30:47.946Z,1.65
2023-10-09T00:31:49.475Z,2.05
2023-10-09T00:32:51.061Z,1.40
2023-10-09T00:33:52.606Z,1.75
2023-10-09T00:34:54.121Z,1.48
2023-10-09T00:35:56.423Z,1.55
2023-10-09T00:36:58.286Z,1.70
2023-10-09T00:37:59.824Z,1.80
2023-10-09T00:39:01.434Z,1.88
2023-10-09T00:40:02.906Z,1.95
2023-10-09T00:41:04.704Z,1.67
2023-10-09T00:42:06.251Z,1.67
2023-10-09T00:43:07.795Z,1.88
2023-10-09T00:44:09.333Z,1.60
2023-10-09T00:45:10.858Z,1.70
2023-10-09T00:46:13.410Z,1.63
2023-10-09T00:47:15.004Z,2.13
2023-10-09T00:48:16.598Z,1.88
2023-10-09T00:49:18.729Z,1.90
2023-10-09T00:50:20.191Z,1.90
2023-10-09T00:51:21.694Z,1.90
2023-10-09T00:52:23.172Z,2.05
2023-10-09T00:53:24.755Z,2.25
2023-10-09T00:54:26.238Z,2.20
2023-10-09T00:55:27.708Z,2.13
2023-10-09T00:56:29.183Z,2.22
2023-10-09T00:57:30.989Z,2.45
2023-10-09T00:58:33.343Z,1.85
2023-10-09T00:59:34.822Z,1.77
2023-10-09T01:00:36.295Z,2.75
2023-10-09T01:01:37.922Z,2.35
2023-10-09T01:02:39.514Z,3.05
2023-10-09T01:03:41.554Z,2.38
2023-10-09T01:04:43.230Z,3.00
2023-10-09T01:05:44.728Z,2.42
2023-10-09T01:06:46.211Z,2.45
2023-10-09T01:07:47.715Z,2.30
2023-10-09T01:08:50.854Z,2.30
2023-10-09T01:09:52.327Z,2.75
2023-10-09T01:10:53.861Z,2.17
2023-10-09T01:11:55.445Z,2.60
2023-10-09T01:12:56.937Z,2.45
2023-10-09T01:13:58.450Z,2.13
2023-10-09T01:14:59.913Z,1.98
2023-10-09T01:16:01.691Z,1.83
2023-10-09T01:17:03.186Z,2.28
2023-10-09T01:18:04.884Z,2.00
2023-10-09T01:19:08.657Z,2.33
2023-10-09T01:20:10.162Z,2.30
2023-10-09T01:21:12.044Z,2.30
2023-10-09T01:22:13.686Z,2.42
2023-10-09T01:23:18.330Z,2.25
2023-10-09T01:24:19.868Z,3.03
2023-10-09T01:25:21.717Z,3.05
2023-10-09T01:26:23.508Z,2.78
2023-10-09T01:27:25.368Z,2.75
2023-10-09T01:28:26.889Z,2.70
2023-10-09T01:29:28.582Z,2.58
2023-10-09T01:30:30.140Z,2.65
2023-10-09T01:31:31.892Z,2.85
2023-10-09T01:32:33.433Z,3.08
2023-10-09T01:33:34.944Z,2.58
2023-10-09T01:34:36.483Z,3.03
2023-10-09T01:35:38.254Z,3.25
2023-10-09T01:36:40.025Z,2.83
2023-10-09T01:37:41.501Z,3.45
2023-10-09T01:38:42.947Z,3.25
2023-10-09T01:39:44.452Z,3.08
2023-10-09T01:40:45.965Z,2.65
2023-10-09T01:41:47.453Z,3.33
2023-10-09T01:42:48.941Z,2.65
2023-10-09T01:43:50.406Z,3.53
2023-10-09T01:44:51.986Z,3.42
2023-10-09T01:45:53.598Z,3.40
2023-10-09T01:46:58.269Z,3.58
2023-10-09T01:48:00.064Z,3.58
2023-10-09T01:49:01.646Z,3.13
2023-10-09T01:50:03.302Z,4.03
2023-10-09T01:51:04.832Z,3.63
2023-10-09T01:52:06.555Z,3.75
2023-10-09T01:53:07.985Z,3.25
2023-10-09T01:54:09.528Z,3.53
2023-10-09T01:55:11.034Z,2.90
2023-10-09T01:56:12.520Z,2.80
2023-10-09T01:57:14.051Z,3.15
2023-10-09T01:58:15.624Z,3.40
2023-10-09T01:59:17.143Z,3.45
2023-10-09T02:00:18.664Z,2.95
2023-10-09T02:01:20.466Z,3.05
2023-10-09T02:02:21.966Z,3.10
2023-10-09T02:03:23.815Z,3.38
2023-10-09T02:04:25.404Z,3.55
2023-10-09T02:05:27.056Z,3.20
2023-10-09T02:06:28.605Z,3.50
2023-10-09T02:07:30.098Z,2.90
2023-10-09T02:08:31.627Z,2.95
2023-10-09T02:09:37.696Z,3.03
2023-10-09T02:10:39.235Z,3.28
2023-10-09T02:11:40.763Z,2.85
2023-10-09T02:12:42.237Z,3.20
2023-10-09T02:13:43.708Z,2.97
2023-10-09T02:14:45.520Z,2.60
2023-10-09T02:15:47.564Z,2.75
2023-10-09T02:16:49.393Z,3.15
2023-10-09T02:17:50.874Z,3.03
2023-10-09T02:18:52.470Z,2.63
2023-10-09T02:19:54.147Z,2.80
2023-10-09T02:20:55.633Z,2.85
2023-10-09T02:21:57.175Z,2.70
2023-10-09T02:22:58.618Z,2.80
2023-10-09T02:24:00.160Z,2.47
2023-10-09T02:25:01.679Z,2.97
2023-10-09T02:26:03.154Z,2.97
2023-10-09T02:27:04.743Z,2.78
2023-10-09T02:28:06.240Z,2.83
2023-10-09T02:29:07.688Z,2.80
2023-10-09T02:30:09.237Z,2.88
2023-10-09T02:31:10.766Z,2.88
2023-10-09T02:32:12.387Z,2.90
2023-10-09T02:33:13.909Z,2.72
2023-10-09T02:34:15.581Z,3.30
2023-10-09T02:35:17.216Z,2.78
2023-10-09T02:36:18.745Z,2.88
2023-10-09T02:37:21.524Z,3.25
2023-10-09T02:38:22.983Z,3.20
2023-10-09T02:39:25.169Z,3.08
2023-10-09T02:40:26.849Z,3.30
2023-10-09T02:41:28.321Z,3.70
2023-10-09T02:42:29.860Z,3.22
2023-10-09T02:43:31.382Z,2.67
2023-10-09T02:44:33.059Z,3.00
2023-10-09T02:45:34.642Z,3.10
2023-10-09T02:46:36.164Z,3.25
2023-10-09T02:47:37.744Z,3.00
2023-10-09T02:48:39.266Z,3.22
2023-10-09T02:49:40.753Z,3.10
2023-10-09T02:50:42.224Z,2.83
2023-10-09T02:51:43.726Z,3.03
2023-10-09T02:52:45.233Z,3.97
2023-10-09T02:53:46.707Z,3.25
2023-10-09T02:54:48.145Z,3.60
2023-10-09T02:55:49.591Z,3.88
2023-10-09T02:56:51.128Z,3.60
2023-10-09T02:57:52.640Z,3.58
2023-10-09T02:58:54.112Z,3.67
2023-10-09T02:59:55.620Z,3.53
2023-10-09T03:00:57.221Z,3.65
2023-10-09T03:01:58.705Z,3.13
2023-10-09T03:03:00.283Z,3.20
2023-10-09T03:04:01.957Z,3.45
2023-10-09T03:05:03.582Z,3.22
2023-10-09T03:06:05.116Z,3.75
2023-10-09T03:07:06.661Z,3.55
2023-10-09T03:08:08.143Z,3.55
2023-10-09T03:09:09.641Z,3.47
2023-10-09T03:10:11.261Z,3.58
2023-10-09T03:11:12.733Z,4.00
2023-10-09T03:12:14.321Z,3.92
2023-10-09T03:13:16.004Z,3.60
2023-10-09T03:14:17.472Z,2.97
2023-10-09T03:15:19.050Z,3.63
2023-10-09T03:16:22.311Z,3.38
2023-10-09T03:17:24.165Z,3.60
2023-10-09T03:18:25.761Z,3.88
2023-10-09T03:19:27.293Z,3.50
2023-10-09T03:20:28.777Z,3.63
2023-10-09T03:21:30.310Z,4.00
2023-10-09T03:22:31.854Z,4.10
2023-10-09T03:23:33.346Z,3.67
2023-10-09T03:24:34.893Z,4.15
2023-10-09T03:25:36.398Z,3.70
2023-10-09T03:26:41.062Z,3.17
2023-10-09T03:27:42.523Z,3.95
2023-10-09T03:28:44.019Z,4.35
2023-10-09T03:29:45.494Z,4.03
2023-10-09T03:30:47.011Z,4.28
2023-10-09T03:31:48.580Z,4.68
2023-10-09T03:32:50.083Z,3.78
2023-10-09T03:33:51.660Z,4.18
2023-10-09T03:34:53.192Z,3.85
2023-10-09T03:35:54.705Z,3.38
2023-10-09T03:36:56.175Z,4.30
2023-10-09T03:37:57.619Z,4.13
2023-10-09T03:38:59.207Z,4.32
2023-10-09T03:40:00.946Z,3.72
2023-10-09T03:41:02.823Z,4.70
2023-10-09T03:42:04.317Z,4.15
2023-10-09T03:43:05.831Z,3.70
2023-10-09T03:44:07.312Z,3.97
2023-10-09T03:45:08.804Z,3.97
2023-10-09T03:46:10.340Z,4.10
2023-10-09T03:47:11.833Z,4.22
2023-10-09T03:48:13.362Z,3.88
2023-10-09T03:49:14.924Z,3.95
2023-10-09T03:50:16.374Z,3.88
2023-10-09T03:51:17.878Z,3.80
2023-10-09T03:52:19.415Z,3.47
2023-10-09T03:53:20.872Z,3.25
2023-10-09T03:54:22.411Z,3.33
2023-10-09T03:55:28.044Z,2.47
2023-10-09T03:56:29.535Z,3.00
2023-10-09T03:57:31.112Z,2.78
2023-10-09T03:58:32.605Z,3.03
2023-10-09T03:59:34.112Z,2.92
2023-10-09T04:00:35.650Z,2.70
2023-10-09T04:01:37.173Z,2.95
2023-10-09T04:02:38.711Z,2.83
2023-10-09T04:03:40.340Z,2.15
2023-10-09T04:04:41.978Z,2.80
2023-10-09T04:05:43.504Z,3.05
2023-10-09T04:06:44.953Z,2.95
2023-10-09T04:07:47.112Z,2.55
2023-10-09T04:08:48.563Z,2.88
2023-10-09T04:09:50.062Z,3.08
2023-10-09T04:10:52.488Z,2.88
2023-10-09T04:11:55.730Z,3.00
2023-10-09T04:12:57.187Z,3.13
2023-10-09T04:13:58.659Z,2.95
2023-10-09T04:15:00.225Z,3.17
2023-10-09T04:16:01.767Z,2.72
2023-10-09T04:17:03.255Z,3.35
2023-10-09T04:18:04.795Z,3.05
2023-10-09T04:19:06.440Z,3.10
2023-10-09T04:20:07.967Z,3.10
2023-10-09T04:21:09.467Z,2.97
2023-10-09T04:22:11.062Z,2.75
2023-10-09T04:23:12.558Z,3.25
2023-10-09T04:24:14.246Z,3.55
2023-10-09T04:25:16.071Z,3.10
2023-10-09T04:26:17.593Z,3.00
2023-10-09T04:27:19.142Z,3.30
2023-10-09T04:28:21.202Z,3.10
2023-10-09T04:29:22.923Z,3.38
2023-10-09T04:30:24.854Z,2.72
2023-10-09T04:31:26.552Z,3.10
2023-10-09T04:32:28.063Z,3.22
2023-10-09T04:33:29.814Z,2.92
2023-10-09T04:34:31.516Z,3.30
2023-10-09T04:35:35.752Z,3.30
2023-10-09T04:36:37.274Z,3.40
2023-10-09T04:37:38.843Z,3.22
2023-10-09T04:38:40.428Z,3.38
2023-10-09T04:39:41.955Z,3.65
2023-10-09T04:40:43.678Z,3.70
2023-10-09T04:41:45.409Z,3.72
2023-10-09T04:42:46.875Z,3.67
2023-10-09T04:43:48.329Z,3.53
2023-10-09T04:44:49.810Z,3.40
2023-10-09T04:45:51.330Z,3.05
2023-10-09T04:46:52.797Z,3.60
2023-10-09T04:47:54.286Z,3.30
2023-10-09T04:48:55.841Z,3.25
2023-10-09T04:49:57.310Z,3.90
2023-10-09T04:50:58.888Z,3.35
2023-10-09T04:52:00.425Z,3.28
2023-10-09T04:53:01.924Z,3.67
2023-10-09T04:54:03.441Z,3.35
2023-10-09T04:55:04.924Z,2.90
2023-10-09T04:56:06.422Z,3.45
2023-10-09T04:57:07.966Z,2.97
2023-10-09T04:58:09.541Z,3.65
2023-10-09T04:59:11.026Z,3.42
2023-10-09T05:00:12.602Z,4.10
2023-10-09T05:01:14.292Z,3.90
2023-10-09T05:02:15.874Z,3.88
2023-10-09T05:03:17.528Z,4.32
2023-10-09T05:04:21.081Z,3.90
2023-10-09T05:05:22.735Z,3.30
2023-10-09T05:06:24.338Z,3.58
2023-10-09T05:07:25.830Z,3.60
2023-10-09T05:08:27.291Z,3.22
2023-10-09T05:09:28.788Z,3.85
2023-10-09T05:10:30.290Z,3.40
2023-10-09T05:11:31.809Z,3.72
2023-10-09T05:12:33.324Z,3.58
2023-10-09T05:13:34.797Z,3.63
2023-10-09T05:14:36.239Z,4.18
2023-10-09T05:15:37.742Z,4.00
2023-10-09T05:16:39.323Z,3.67
2023-10-09T05:17:41.056Z,4.20
2023-10-09T05:18:42.794Z,4.10
2023-10-09T05:19:44.301Z,3.80
2023-10-09T05:20:45.774Z,3.90
2023-10-09T05:21:47.289Z,3.90
2023-10-09T05:22:48.802Z,3.42
2023-10-09T05:23:50.299Z,3.60
2023-10-09T05:24:51.779Z,3.50
2023-10-09T05:25:53.313Z,3.05
2023-10-09T05:26:54.825Z,3.50
2023-10-09T05:27:56.282Z,3.50
2023-10-09T05:28:57.748Z,3.53
2023-10-09T05:29:59.250Z,3.63
2023-10-09T05:31:00.742Z,3.92
2023-10-09T05:32:02.302Z,3.40
2023-10-09T05:33:06.975Z,3.05
2023-10-09T05:34:08.473Z,3.83
2023-10-09T05:35:09.972Z,3.92
2023-10-09T05:36:11.478Z,3.55
2023-10-09T05:37:12.998Z,3.85
2023-10-09T05:38:14.445Z,4.18
2023-10-09T05:39:16.168Z,3.45
2023-10-09T05:40:18.013Z,4.20
2023-10-09T05:41:19.596Z,3.70
2023-10-09T05:42:21.174Z,3.45
2023-10-09T05:43:22.652Z,3.70
2023-10-09T05:44:24.122Z,4.35
2023-10-09T05:45:25.640Z,3.90
2023-10-09T05:46:27.166Z,4.00
2023-10-09T05:47:28.697Z,3.83
2023-10-09T05:48:30.207Z,8.23
2023-10-09T05:49:31.735Z,11.70
2023-10-09T05:50:33.203Z,10.60
2023-10-09T05:51:34.669Z,8.93
2023-10-09T05:52:36.289Z,5.45
2023-10-09T05:53:37.800Z,4.65
2023-10-09T05:54:39.348Z,5.18
2023-10-09T05:55:40.891Z,5.25
2023-10-09T05:56:42.384Z,4.25
2023-10-09T05:57:43.942Z,3.75
2023-10-09T05:58:45.449Z,4.10
2023-10-09T05:59:46.948Z,3.53
2023-10-09T06:00:48.437Z,3.72
2023-10-09T06:01:50.010Z,4.40
2023-10-09T06:02:59.749Z,3.85
2023-10-09T06:04:03.967Z,4.43
2023-10-09T06:05:05.692Z,4.10
2023-10-09T06:06:07.188Z,3.70
2023-10-09T06:07:08.674Z,3.97
2023-10-09T06:08:10.204Z,3.60
2023-10-09T06:09:11.873Z,4.72
2023-10-09T06:10:13.399Z,5.95
2023-10-09T06:11:14.897Z,4.97
2023-10-09T06:12:16.399Z,4.68
2023-10-09T06:13:17.998Z,4.78
2023-10-09T06:14:19.505Z,4.38
2023-10-09T06:15:23.925Z,4.43
2023-10-09T06:16:25.550Z,5.10
2023-10-09T06:17:27.031Z,6.35
2023-10-09T06:18:28.653Z,6.72
2023-10-09T06:19:30.139Z,6.47
2023-10-09T06:20:31.619Z,6.28
2023-10-09T06:21:33.142Z,5.57
2023-10-09T06:22:34.790Z,5.28
2023-10-09T06:23:36.295Z,5.35
2023-10-09T06:24:39.638Z,4.15
2023-10-09T06:25:42.350Z,4.65
2023-10-09T06:26:43.816Z,4.20
2023-10-09T06:27:45.329Z,4.00
2023-10-09T06:28:46.850Z,4.15
2023-10-09T06:29:48.299Z,3.60
2023-10-09T06:30:49.840Z,4.22
2023-10-09T06:31:51.921Z,3.60
2023-10-09T06:32:54.373Z,3.63
2023-10-09T06:33:55.924Z,3.35
2023-10-09T06:34:57.415Z,4.13
2023-10-09T06:35:58.888Z,5.75
2023-10-09T06:37:00.373Z,5.65
2023-10-09T06:38:01.834Z,4.68
2023-10-09T06:39:03.463Z,4.00
2023-10-09T06:40:04.995Z,3.95
2023-10-09T06:41:06.493Z,4.55
2023-10-09T06:42:08.003Z,3.45
2023-10-09T06:43:09.534Z,3.80
2023-10-09T06:44:11.131Z,3.50
2023-10-09T06:45:12.645Z,4.22
2023-10-09T06:46:14.178Z,4.00
2023-10-09T06:47:15.653Z,3.90
2023-10-09T06:48:17.271Z,3.80
2023-10-09T06:49:18.777Z,4.43
2023-10-09T06:50:20.238Z,3.72
2023-10-09T06:51:21.750Z,3.97
2023-10-09T06:52:23.242Z,3.58
2023-10-09T06:53:27.341Z,4.03
2023-10-09T06:54:29.381Z,3.67
2023-10-09T06:55:30.894Z,4.03
2023-10-09T06:56:32.569Z,3.38
2023-10-09T06:57:34.248Z,4.07
2023-10-09T06:58:35.739Z,3.70
2023-10-09T06:59:37.248Z,4.55
2023-10-09T07:00:38.757Z,3.78
2023-10-09T07:01:40.374Z,3.38
2023-10-09T07:02:42.012Z,4.07
2023-10-09T07:03:43.590Z,4.22
2023-10-09T07:04:45.214Z,3.70
2023-10-09T07:05:46.832Z,4.10
2023-10-09T07:06:48.337Z,3.33
2023-10-09T07:07:49.797Z,3.30
2023-10-09T07:08:51.889Z,3.38
2023-10-09T07:09:53.381Z,3.70
2023-10-09T07:10:54.832Z,3.92
2023-10-09T07:11:56.320Z,4.47
2023-10-09T07:12:57.928Z,3.85
2023-10-09T07:13:59.384Z,3.50
2023-10-09T07:15:00.883Z,4.22
2023-10-09T07:16:02.429Z,3.42
2023-10-09T07:17:03.981Z,3.60
2023-10-09T07:18:05.554Z,3.60
2023-10-09T07:19:07.023Z,3.50
2023-10-09T07:20:08.540Z,3.70
2023-10-09T07:21:10.013Z,3.58
2023-10-09T07:22:11.510Z,3.88
2023-10-09T07:23:12.979Z,3.25
2023-10-09T07:24:14.712Z,3.90
2023-10-09T07:25:16.399Z,3.67
2023-10-09T07:26:17.864Z,3.58
2023-10-09T07:27:19.355Z,3.55
2023-10-09T07:28:20.863Z,3.50
2023-10-09T07:29:22.347Z,3.53
2023-10-09T07:30:23.866Z,3.42
2023-10-09T07:31:25.612Z,3.58
2023-10-09T07:32:27.318Z,3.47
2023-10-09T07:33:28.866Z,3.80
2023-10-09T07:34:30.385Z,4.10
2023-10-09T07:35:33.035Z,3.55
2023-10-09T07:36:34.609Z,3.33
2023-10-09T07:37:36.096Z,3.67
2023-10-09T07:38:37.583Z,3.60
2023-10-09T07:39:39.738Z,3.72
2023-10-09T07:40:41.391Z,3.33
2023-10-09T07:41:42.912Z,3.72
2023-10-09T07:42:44.487Z,3.22
2023-10-09T07:43:47.582Z,4.22
2023-10-09T07:44:49.066Z,3.95
2023-10-09T07:45:50.631Z,3.85
2023-10-09T07:46:52.109Z,3.55
2023-10-09T07:47:53.614Z,3.70
2023-10-09T07:48:55.229Z,3.65
2023-10-09T07:49:56.714Z,3.22
2023-10-09T07:50:58.199Z,3.35
2023-10-09T07:51:59.683Z,3.15
2023-10-09T07:53:01.168Z,3.47
2023-10-09T07:54:02.644Z,3.50
2023-10-09T07:55:04.158Z,3.80
2023-10-09T07:56:05.659Z,3.17
2023-10-09T07:57:07.177Z,3.58
2023-10-09T07:58:08.652Z,3.20
2023-10-09T07:59:10.150Z,3.03
2023-10-09T08:00:11.658Z,3.05
2023-10-09T08:01:13.228Z,3.65
2023-10-09T08:02:14.745Z,3.65
2023-10-09T08:03:16.314Z,3.60
2023-10-09T08:04:18.093Z,3.28
2023-10-09T08:05:19.767Z,3.08
2023-10-09T08:06:21.350Z,2.60
2023-10-09T08:08:02.552Z,4.00
2023-10-09T08:08:44.330Z,3.67
2023-10-09T08:09:45.881Z,3.08
2023-10-09T08:10:47.377Z,3.15
2023-10-09T08:11:48.877Z,3.53
2023-10-09T08:12:50.457Z,3.85
2023-10-09T08:13:52.065Z,3.45
2023-10-09T08:14:53.586Z,3.88
2023-10-09T08:15:55.114Z,3.10
2023-10-09T08:16:56.700Z,3.25
2023-10-09T08:17:58.247Z,2.72
2023-10-09T08:18:59.750Z,3.42
2023-10-09T08:20:01.285Z,3.35
2023-10-09T08:21:02.754Z,3.05
2023-10-09T08:22:04.239Z,3.00
2023-10-09T08:23:05.696Z,3.05
2023-10-09T08:24:07.195Z,2.90
2023-10-09T08:25:08.691Z,3.42
2023-10-09T08:26:10.251Z,3.08
2023-10-09T08:27:11.829Z,3.08
2023-10-09T08:28:13.307Z,2.90
2023-10-09T08:29:14.805Z,2.95
2023-10-09T08:30:16.360Z,3.22
2023-10-09T08:31:17.997Z,3.10
2023-10-09T08:34:15.772Z,3.10
2023-10-09T08:34:33.031Z,2.72
2023-10-09T08:35:02.449Z,2.47
2023-10-09T08:36:04.071Z,3.70
2023-10-09T08:37:05.864Z,3.38
2023-10-09T08:38:07.846Z,2.92
2023-10-09T08:39:09.345Z,2.72
2023-10-09T08:40:10.822Z,3.00
2023-10-09T08:41:12.292Z,2.72
2023-10-09T08:42:13.825Z,2.92
2023-10-09T08:43:15.284Z,3.03
2023-10-09T08:44:16.762Z,2.80
2023-10-09T08:45:18.421Z,2.78
2023-10-09T08:46:19.876Z,3.15
2023-10-09T08:47:21.356Z,2.95
2023-10-09T08:48:22.831Z,3.83
2023-10-09T08:49:24.336Z,3.25
2023-10-09T08:50:25.813Z,3.38
2023-10-09T08:51:27.608Z,3.63
2023-10-09T08:52:29.163Z,3.08
2023-10-09T08:53:30.700Z,2.83
2023-10-09T08:54:32.179Z,2.80
2023-10-09T08:55:33.743Z,3.03
2023-10-09T08:56:35.291Z,3.03
2023-10-09T08:57:36.812Z,2.80
2023-10-09T08:58:38.589Z,2.53
2023-10-09T08:59:40.140Z,3.05
2023-10-09T09:00:41.647Z,2.58
2023-10-09T09:01:43.250Z,3.03
2023-10-09T09:02:44.815Z,2.95
2023-10-09T09:03:46.383Z,2.70
2023-10-09T09:04:48.341Z,3.03
2023-10-09T09:05:49.936Z,3.33
2023-10-09T09:06:51.422Z,2.72
2023-10-09T09:07:53.002Z,2.85
2023-10-09T09:08:54.675Z,2.58
2023-10-09T09:09:56.159Z,3.10
2023-10-09T09:10:57.664Z,3.13
2023-10-09T09:11:59.190Z,3.22
2023-10-09T09:13:00.660Z,2.55
2023-10-09T09:14:02.217Z,2.75
2023-10-09T09:15:03.735Z,3.28
2023-10-09T09:16:05.248Z,2.92
2023-10-09T09:17:06.821Z,2.75
2023-10-09T09:18:08.557Z,2.50
2023-10-09T09:19:10.109Z,3.15
2023-10-09T09:20:11.647Z,2.92
2023-10-09T09:21:13.150Z,2.47
2023-10-09T09:22:14.657Z,2.40
2023-10-09T09:23:16.225Z,3.22
2023-10-09T09:24:17.820Z,2.65
2023-10-09T09:25:19.299Z,2.65
2023-10-09T09:26:20.784Z,3.08
2023-10-09T09:27:22.252Z,2.35
2023-10-09T09:28:23.689Z,3.00
2023-10-09T09:29:25.256Z,2.70
2023-10-09T09:30:26.770Z,3.20
2023-10-09T09:31:28.427Z,3.05
2023-10-09T09:32:30.008Z,3.22
2023-10-09T09:33:31.505Z,3.05
2023-10-09T09:34:33.005Z,3.13
2023-10-09T09:35:34.478Z,2.72
2023-10-09T09:36:35.932Z,2.85
2023-10-09T09:37:37.426Z,3.20
2023-10-09T09:38:38.882Z,3.08
2023-10-09T09:39:52.904Z,2.92
2023-10-09T09:40:57.225Z,3.08
2023-10-09T09:41:58.725Z,2.70
2023-10-09T09:43:00.213Z,2.85
2023-10-09T09:44:01.905Z,3.03
2023-10-09T09:45:03.660Z,3.63
2023-10-09T09:46:05.151Z,3.08
2023-10-09T09:47:06.736Z,2.85
2023-10-09T09:48:08.431Z,3.05
2023-10-09T09:49:09.920Z,3.05
2023-10-09T09:50:11.389Z,3.85
2023-10-09T09:51:12.849Z,3.03
2023-10-09T09:52:15.994Z,3.28
2023-10-09T09:53:17.586Z,3.20
2023-10-09T09:54:19.265Z,3.67
2023-10-09T09:55:20.903Z,2.97
2023-10-09T09:56:22.368Z,3.65
2023-10-09T09:57:23.873Z,3.35
2023-10-09T09:58:25.363Z,3.60
2023-10-09T09:59:26.849Z,3.40
2023-10-09T10:00:28.380Z,3.13
2023-10-09T10:01:29.918Z,3.22
2023-10-09T10:02:31.498Z,2.90
2023-10-09T10:03:33.098Z,3.15
2023-10-09T10:04:34.688Z,3.63
2023-10-09T10:05:36.238Z,3.38
2023-10-09T10:06:37.698Z,3.28
2023-10-09T10:07:39.237Z,3.20
2023-10-09T10:08:40.739Z,3.20
2023-10-09T10:09:42.225Z,3.58
2023-10-09T10:10:43.882Z,3.33
2023-10-09T10:11:45.630Z,3.75
2023-10-09T10:12:47.355Z,2.97
2023-10-09T10:13:48.867Z,3.47
2023-10-09T10:14:50.632Z,2.75
2023-10-09T10:15:52.141Z,3.30
2023-10-09T10:16:53.706Z,2.97
2023-10-09T10:17:55.314Z,2.95
2023-10-09T10:18:56.827Z,3.40
2023-10-09T10:19:58.371Z,3.30
2023-10-09T10:20:59.906Z,3.00
2023-10-09T10:22:01.428Z,2.50
2023-10-09T10:23:02.957Z,2.72
2023-10-09T10:24:04.472Z,2.97
2023-10-09T10:25:05.950Z,3.08
2023-10-09T10:26:07.488Z,2.35
2023-10-09T10:27:08.972Z,2.83
2023-10-09T10:28:10.426Z,3.25
2023-10-09T10:29:11.964Z,2.88
2023-10-09T10:30:13.490Z,2.88
2023-10-09T10:31:15.436Z,3.00
2023-10-09T10:32:17.010Z,2.42
2023-10-09T10:33:18.475Z,2.70
2023-10-09T10:34:20.017Z,2.67
2023-10-09T10:35:21.461Z,2.70
2023-10-09T10:36:24.612Z,2.70
2023-10-09T10:37:26.658Z,2.42
2023-10-09T10:38:28.120Z,2.70
2023-10-09T10:39:29.623Z,3.00
2023-10-09T10:40:31.121Z,2.50
2023-10-09T10:41:32.648Z,2.67
2023-10-09T10:42:34.142Z,2.47
2023-10-09T10:43:35.702Z,2.95
2023-10-09T10:44:37.621Z,3.00
2023-10-09T10:45:39.415Z,2.50
2023-10-09T10:46:41.032Z,2.85
2023-10-09T10:47:42.590Z,3.05
2023-10-09T10:48:44.096Z,2.70
2023-10-09T10:49:47.013Z,2.83
2023-10-09T10:50:48.510Z,2.60
2023-10-09T10:51:50.026Z,2.90
2023-10-09T10:52:51.549Z,2.83
2023-10-09T10:53:53.129Z,2.58
2023-10-09T10:54:54.719Z,2.70
2023-10-09T10:55:56.291Z,2.72
2023-10-09T10:56:57.843Z,2.50
2023-10-09T10:57:59.335Z,2.80
2023-10-09T10:59:00.872Z,2.72
2023-10-09T11:00:02.411Z,3.22
2023-10-09T11:01:03.885Z,3.13
2023-10-09T11:02:05.428Z,2.67
2023-10-09T11:03:07.174Z,2.75
2023-10-09T11:04:09.084Z,2.42
2023-10-09T11:05:10.818Z,3.63
2023-10-09T11:06:15.366Z,2.47
2023-10-09T11:07:16.963Z,3.42
2023-10-09T11:08:18.442Z,2.85
2023-10-09T11:09:19.896Z,2.80
2023-10-09T11:10:21.351Z,2.70
2023-10-09T11:11:23.448Z,2.70
2023-10-09T11:12:24.972Z,3.33
2023-10-09T11:13:26.451Z,3.40
2023-10-09T11:14:27.904Z,2.60
2023-10-09T11:15:29.357Z,2.28
2023-10-09T11:16:30.832Z,3.15
2023-10-09T11:17:32.358Z,2.65
2023-10-09T11:18:33.883Z,2.63
2023-10-09T11:19:35.401Z,2.78
2023-10-09T11:20:36.872Z,2.55
2023-10-09T11:21:38.391Z,2.55
2023-10-09T11:22:39.917Z,2.78
2023-10-09T11:23:41.423Z,2.65
2023-10-09T11:24:42.931Z,2.70
2023-10-09T11:25:44.431Z,2.17
2023-10-09T11:26:45.927Z,2.63
2023-10-09T11:27:50.535Z,2.35
2023-10-09T11:28:52.039Z,3.38
2023-10-09T11:29:53.564Z,2.47
2023-10-09T11:30:55.340Z,2.60
2023-10-09T11:31:56.927Z,3.08
2023-10-09T11:32:58.436Z,2.78
2023-10-09T11:33:59.929Z,2.63
2023-10-09T11:35:01.470Z,2.70
2023-10-09T11:36:02.964Z,3.83
2023-10-09T11:37:04.468Z,2.97
2023-10-09T11:38:06.004Z,2.50
2023-10-09T11:39:07.495Z,2.58
2023-10-09T11:40:08.974Z,2.60
2023-10-09T11:41:10.499Z,3.33
2023-10-09T11:42:11.972Z,2.92
2023-10-09T11:43:13.458Z,2.40
2023-10-09T11:44:15.137Z,2.58
2023-10-09T11:45:16.914Z,2.70
2023-10-09T11:46:18.457Z,3.15
2023-10-09T11:47:20.434Z,3.03
2023-10-09T11:48:22.586Z,2.72
2023-10-09T11:49:24.216Z,2.40
2023-10-09T11:50:25.732Z,2.80
2023-10-09T11:51:27.221Z,2.67
2023-10-09T11:52:28.777Z,3.28
2023-10-09T11:53:30.337Z,3.08
2023-10-09T11:54:31.812Z,2.90
2023-10-09T11:55:33.329Z,3.10
2023-10-09T11:56:34.806Z,2.58
2023-10-09T11:57:36.375Z,2.90
2023-10-09T11:58:37.984Z,3.13
2023-10-09T11:59:39.535Z,2.45
2023-10-09T12:00:41.201Z,2.63
2023-10-09T12:01:42.754Z,2.72
2023-10-09T12:02:44.386Z,2.40
2023-10-09T12:03:46.001Z,2.72
2023-10-09T12:04:47.712Z,2.83
2023-10-09T12:05:49.333Z,3.20
2023-10-09T12:06:50.828Z,3.05
2023-10-09T12:07:52.368Z,2.92
2023-10-09T12:08:53.896Z,2.55
2023-10-09T12:09:55.371Z,2.40
2023-10-09T12:10:56.898Z,2.90
2023-10-09T12:12:04.574Z,2.45
2023-10-09T12:13:06.228Z,3.03
2023-10-09T12:14:07.774Z,2.70
2023-10-09T12:15:09.303Z,2.90
2023-10-09T12:16:11.049Z,2.65
2023-10-09T12:17:12.874Z,2.20
2023-10-09T12:18:14.409Z,2.97
2023-10-09T12:19:15.936Z,2.30
2023-10-09T12:20:17.521Z,2.38
2023-10-09T12:21:18.990Z,2.85
2023-10-09T12:22:20.465Z,2.85
2023-10-09T12:23:21.958Z,2.72
2023-10-09T12:24:23.573Z,2.78
2023-10-09T12:25:25.060Z,2.92
2023-10-09T12:26:26.569Z,2.92
2023-10-09T12:27:28.058Z,3.28
2023-10-09T12:28:29.629Z,2.83
2023-10-09T12:29:31.155Z,2.45
2023-10-09T12:30:32.644Z,2.85
2023-10-09T12:31:34.790Z,3.00
2023-10-09T12:32:36.297Z,3.67
2023-10-09T12:33:37.892Z,3.20
2023-10-09T12:34:39.582Z,4.15
2023-10-09T12:35:41.164Z,3.67
2023-10-09T12:36:42.724Z,3.30
2023-10-09T12:37:44.291Z,3.25
2023-10-09T12:38:45.799Z,3.25
2023-10-09T12:39:47.262Z,2.80
2023-10-09T12:40:51.821Z,2.78
2023-10-09T12:41:53.410Z,3.13
2023-10-09T12:42:54.904Z,2.75
2023-10-09T12:43:56.483Z,2.50
2023-10-09T12:44:57.998Z,2.97
2023-10-09T12:45:59.486Z,2.92
2023-10-09T12:47:01.094Z,2.58
2023-10-09T12:48:02.668Z,3.00
2023-10-09T12:49:04.211Z,2.55
2023-10-09T12:50:05.801Z,2.85
2023-10-09T12:51:07.353Z,3.00
2023-10-09T12:52:09.277Z,2.60
2023-10-09T12:53:10.838Z,2.90
2023-10-09T12:54:12.453Z,3.33
2023-10-09T12:55:14.132Z,3.15
2023-10-09T12:56:15.628Z,3.13
2023-10-09T12:57:17.142Z,2.78
2023-10-09T12:58:18.594Z,2.88
2023-10-09T12:59:20.077Z,3.10
2023-10-09T13:00:21.582Z,3.15
2023-10-09T13:01:23.141Z,2.67
2023-10-09T13:02:24.644Z,2.80
2023-10-09T13:03:26.166Z,3.17
2023-10-09T13:04:27.706Z,3.35
2023-10-09T13:05:29.212Z,2.60
2023-10-09T13:07:32.211Z,2.58
2023-10-09T13:08:33.707Z,3.58
2023-10-09T13:09:35.165Z,2.72
2023-10-09T13:10:36.650Z,3.78
2023-10-09T13:11:38.132Z,2.67
2023-10-09T13:12:40.680Z,3.08
2023-10-09T13:13:42.282Z,3.03
2023-10-09T13:14:43.753Z,2.75
2023-10-09T13:15:45.224Z,2.72
2023-10-09T13:16:47.195Z,2.65
2023-10-09T13:17:49.017Z,2.25
2023-10-09T13:18:50.564Z,2.80
2023-10-09T13:19:52.070Z,2.63
2023-10-09T13:20:53.556Z,3.15
2023-10-09T13:21:55.101Z,2.38
2023-10-09T13:22:56.630Z,2.72
2023-10-09T13:23:58.129Z,3.00
2023-10-09T13:24:59.576Z,2.55
2023-10-09T13:26:01.104Z,2.55
2023-10-09T13:27:02.616Z,2.80
2023-10-09T13:28:04.122Z,2.30
2023-10-09T13:29:05.721Z,3.05
2023-10-09T13:30:07.212Z,2.58
2023-10-09T13:31:08.677Z,2.63
2023-10-09T13:32:10.211Z,3.15
2023-10-09T13:33:11.773Z,2.22
2023-10-09T13:34:13.347Z,2.70
2023-10-09T13:35:14.910Z,2.38
2023-10-09T13:36:16.672Z,2.67
2023-10-09T13:37:18.266Z,2.38
2023-10-09T13:38:19.820Z,2.40
2023-10-09T13:39:21.297Z,2.90
2023-10-09T13:40:22.862Z,3.00
2023-10-09T13:41:24.356Z,3.05
2023-10-09T13:42:25.820Z,2.40
2023-10-09T13:43:27.475Z,2.80